Smith Valley, Nevada Weather observations

Data are for 10 minute period ending at time listed.
 Day   Time   Solar   Ave.   Ave.  Ave.  Vector  Max.   Baro.   Total    
  of    of     Rad.   Air    Rel.  Wind   Wind   Wind  Press.  Precip.   
Year   Day            Temp.  Hum.  Speed  Dir.   Gust                    
2014   (PST)  Kw/m2    F      %     mph   deg.    mph    mb.     in.     
-------------------------------------------------------------------------
 110    0:50   0.00   49.8    29    4.1   229     6.4   853.5    0.00 
 110    1:00   0.00   45.5    40    2.8   131     6.1   853.6    0.00 
 110    1:10   0.00   46.6    36    2.1   200     3.8   853.7    0.00 
 110    1:20   0.00   45.0    38    2.7    82     4.1   853.9    0.00 
 110    1:30   0.00   46.6    36    4.6    63     6.3   854.0    0.00 
 110    1:40   0.00   43.3    42    5.8   166     7.2   854.0    0.00 
 110    1:50   0.00   40.8    50    4.0   165     6.8   854.1    0.00 
 110    2:00   0.00   39.8    54    3.7   163     5.2   854.2    0.00 
 110    2:10   0.00   40.7    49    3.5   152     6.1   854.3    0.00 
 110    2:20   0.00   39.1    52    5.5   151     7.8   854.4    0.00 
 110    2:30   0.00   39.0    53    5.7   166     7.7   854.5    0.00 
 110    2:40   0.00   41.0    49    6.3   183     7.5   854.7    0.00 
 110    2:50   0.00   43.1    40    5.5   171     7.6   854.8    0.00 
 110    3:00   0.00   44.4    36    4.7   161     6.1   854.8    0.00 
 110    3:10   0.00   45.9    32    3.8   155     5.3   854.9    0.00 
 110    3:20   0.00   45.7    32    2.9   136     4.7   855.0    0.00 
 110    3:30   0.00   45.3    31    4.7   149     5.8   855.0    0.00 
 110    3:40   0.00   45.7    30    5.0   146     5.8   855.1    0.00 
 110    3:50   0.00   42.8    34    4.9   142     7.2   855.2    0.00 
 110    4:00   0.00   38.2    46    5.7   153     8.0   855.2    0.00 
 110    4:10   0.00   37.2    52    5.4   155     7.5   855.3    0.00 
 110    4:20   0.00   36.2    53    5.7   147     7.4   855.4    0.00 
 110    4:30   0.00   35.4    52    6.8   144     9.6   855.5    0.00 
 110    4:40   0.00   35.6    54    5.6   153     7.8   855.5    0.00 
 110    4:50   0.00   35.7    54    5.6   159     7.1   855.5    0.00 
 110    5:00   0.00   34.8    57    5.4   156     6.7   855.7    0.00 
 110    5:10   0.00   34.1    57    5.8   148     7.7   855.7    0.00 
 110    5:20   0.01   34.5    54    6.7   150     8.4   855.8    0.00 
 110    5:30   0.01   33.9    57    6.3   151     7.5   855.9    0.00 
 110    5:40   0.03   35.2    54    6.0   149     7.2   856.0    0.00 
 110    5:50   0.04   36.6    50    6.7   157     8.2   856.1    0.00 
 110    6:00   0.06   37.6    48    6.8   153     8.6   856.2    0.00 
 110    6:10   0.10   38.9    45    6.3   157     9.3   856.3    0.00 
 110    6:20   0.14   40.9    44    6.6   156     8.5   856.4    0.00 
 110    6:30   0.14   42.7    42    4.6   181     7.7   856.5    0.00 
 110    6:40   0.15   43.6    42    2.7   272     4.5   856.6    0.00 
 110    6:50   0.20   45.3    36    1.3   261     3.7   856.6    0.00 
 110    7:00   0.26   48.2    33    0.5   152     1.5   856.6    0.00 
 110    7:10   0.30   50.2    30    1.2    72     2.7   856.6    0.00 
 110    7:20   0.33   50.3    31    2.2    69     3.4   856.7    0.00 
 110    7:30   0.38   51.4    29    2.3    88     3.7   856.6    0.00 
 110    7:40   0.42   53.6    25    1.2   114     3.0   856.6    0.00 
 110    7:50   0.44   54.0    25    1.9    48     3.9   856.6    0.00 
 110    8:00   0.47   54.6    26    1.3    34     3.7   856.5    0.00 
 110    8:10   0.50   55.1    25    1.5    16     3.8   856.4    0.00 
 110    8:20   0.54   55.2    25    2.4    19     5.0   856.4    0.00 
 110    8:30   0.58   55.1    26    3.1    21     5.8   856.4    0.00 
 110    8:40   0.62   55.7    25    3.6    43     6.9   856.4    0.00 
 110    8:50   0.65   55.9    26    4.3    50     9.5   856.5    0.00 
 110    9:00   0.68   56.2    26    4.2    63     8.2   856.5    0.00 
 110    9:10   0.69   56.2    26    4.7    33     8.8   856.5    0.00 
 110    9:20   0.73   56.8    26    5.2    62     9.3   856.5    0.00 
 110    9:30   0.77   57.8    25    2.8    89     8.0   856.6    0.00 
 110    9:40   0.78   58.0    24    4.1    29     7.9   856.6    0.00 
 110    9:50   0.81   58.4    23    4.6     4     8.0   856.7    0.00 
 110   10:00   0.84   58.5    25    4.1    15     8.6   856.6    0.00 
 110   10:10   0.86   58.5    25    4.8    31     9.6   856.6    0.00 
 110   10:20   0.88   58.8    23    4.5    27     9.3   856.6    0.00 
 110   10:30   0.89   59.9    22    3.8    16     9.9   856.5    0.00 
 110   10:40   0.92   60.3    23    5.0    38     9.6   856.4    0.00 
 110   10:50   0.93   60.7    22    4.7    49     9.9   856.3    0.00 
 110   11:00   0.95   60.7    22    3.6    28     9.5   856.3    0.00 
 110   11:10   0.95   61.9    22    2.6   295     8.7   856.1    0.00 
 110   11:20   0.96   61.7    23    5.5    30    10.1   856.0    0.00 
 110   11:30   0.97   61.8    22    3.8    50     7.5   856.0    0.00 
 110   11:40   0.97   62.9    20    3.0     6     8.6   855.9    0.00 
 110   11:50   0.99   62.8    21    3.1   353     8.4   855.8    0.00 
 110   12:00   0.99   63.8    21    2.8   357     6.8   855.6    0.00 
 110   12:10   0.98   64.6    21    4.8    66     9.1   855.6    0.00 
 110   12:20   0.98   63.9    20    4.1   342     9.2   855.4    0.00 
 110   12:30   0.97   64.7    21    5.1    54    11.3   855.4    0.00 
 110   12:40   0.98   65.4    20    2.5   115     8.1   855.3    0.00 
 110   12:50   0.97   66.2    20    4.6    41     8.8   855.2    0.00 
 110   13:00   0.92   66.2    20    3.6    48     9.6   855.1    0.00 
 110   13:10   0.97   67.1    19    4.1    57     9.1   855.0    0.00 
 110   13:20   0.92   66.8    19    3.8    81     8.3   854.9    0.00 
 110   13:30   0.93   67.7    18    4.7    46    10.4   854.7    0.00 
 110   13:40   0.91   67.4    19    4.8    63    11.5   854.6    0.00 
 110   13:50   0.89   67.4    19    4.6    28    10.7   854.5    0.00 
 110   14:00   0.87   68.0    19    4.7    57    11.0   854.4    0.00 
 110   14:10   0.85   68.2    18    5.3    61    12.6   854.3    0.00 
 110   14:20   0.83   68.9    18    4.7    54    11.4   854.2    0.00 
 110   14:30   0.80   68.8    17    5.8    46    10.4   854.1    0.00 
 110   14:40   0.78   69.2    16    3.9    86     9.7   853.9    0.00 
 110   14:50   0.75   68.9    16    4.0    90    10.3   853.9    0.00 
 110   15:00   0.72   69.3    17    6.4    48    12.1   853.8    0.00 
 110   15:10   0.69   69.2    17    5.6    74    11.2   853.8    0.00 
 110   15:20   0.67   69.4    18    7.1    84    14.0   853.7    0.00 
 110   15:30   0.64   69.0    17    4.6    96     8.8   853.7    0.00 
 110   15:40   0.60   69.0    17    8.2   106    14.7   853.6    0.00 
 110   15:50   0.57   69.2    17    7.6    80    12.4   853.5    0.00 
 110   16:00   0.54   69.5    17    6.0    64    12.4   853.6    0.00 
 110   16:10   0.50   69.3    17    7.3    50    14.1   853.6    0.00 
 110   16:20   0.46   68.7    17    7.8    74    16.8   853.6    0.00 
 110   16:30   0.43   68.6    16    6.8    68    11.1   853.5    0.00 
 110   16:40   0.39   68.7    16    6.2    63    10.2   853.5    0.00 
 110   16:50   0.35   68.6    17    4.2    41     7.9   853.6    0.00 
 110   17:00   0.32   68.2    18    6.5    46    11.0   853.6    0.00 
 110   17:10   0.28   67.9    16    5.8    56     8.6   853.6    0.00 
 110   17:20   0.24   67.1    20    6.7    53    12.5   853.6    0.00 
 110   17:30   0.21   65.7    23    5.7    46     8.3   853.6    0.00 
 110   17:40   0.17   64.8    24    5.7    45     8.5   853.6    0.00 
 110   17:50   0.14   63.9    24    5.2    50     8.0   853.6    0.00 
 110   18:00   0.07   62.3    26    4.7    54     6.8   853.5    0.00 
 110   18:10   0.03   60.1    31    4.4    60     5.4   853.4    0.00 
 110   18:20   0.03   59.7    27    5.2    63     7.6   853.3    0.00 
 110   18:30   0.02   58.1    31    4.5    63     5.2   853.3    0.00 
 110   18:40   0.01   57.7    30    3.7    64     4.5   853.3    0.00 
 110   18:50   0.00   57.7    26    3.8    70     4.4   853.3    0.00 
 110   19:00   0.00   57.7    24    3.9    68     4.6   853.3    0.00 
 110   19:10   0.00   56.4    27    3.0    15     5.0   853.4    0.00 
 110   19:20   0.00   54.1    29    2.9   262     4.0   853.5    0.00 
 110   19:30   0.00   54.4    27    2.4   260     3.9   853.5    0.00 
 110   19:40   0.00   54.1    27    2.2   287     4.1   853.6    0.00 
 110   19:50   0.00   52.2    31    2.8   158     5.3   853.9    0.00 
 110   20:00   0.00   52.1    34    3.6   208     4.7   854.1    0.00 
 110   20:10   0.00   53.8    27    2.8   237     4.2   854.3    0.00 
 110   20:20   0.00   54.8    24    1.2   226     3.3   854.5    0.00 
 110   20:30   0.00   50.4    33    3.3   171     3.9   854.6    0.00 
 110   20:40   0.00   46.0    51    3.5   176     3.8   854.7    0.00 
 110   20:50   0.00   45.4    53    2.8   194     3.7   854.8    0.00 
 110   21:00   0.00   48.8    44    1.9   190     2.5   854.8    0.00 
 110   21:10   0.00   44.9    50    5.0   162     7.7   854.7    0.00 
 110   21:20   0.00   42.9    44    6.9   150     8.2   854.6    0.00 
 110   21:30   0.00   43.2    48    7.0   150     8.0   854.6    0.00 
 110   21:40   0.00   43.5    48    6.1   157     6.8   854.6    0.00 
 110   21:50   0.00   42.8    50    6.4   154     7.2   854.5    0.00 
 110   22:00   0.00   44.2    45    5.9   151     7.2   854.5    0.00 
 110   22:10   0.00   44.9    41    6.8   145     7.7   854.5    0.00 
 110   22:20   0.00   44.7    41    6.4   147     8.0   854.5    0.00 
 110   22:30   0.00   44.8    40    4.0   158     6.9   854.5    0.00 
 110   22:40   0.00   42.5    48    3.5   200     4.8   854.5    0.00 
 110   22:50   0.00   41.2    51    5.4   171     7.1   854.6    0.00 
 110   23:00   0.00   40.4    52    5.6   155     6.9   854.5    0.00 
 110   23:10   0.00   41.8    45    5.2   159     6.3   854.5    0.00 
 110   23:20   0.00   42.5    46    5.9   168     8.5   854.5    0.00 
 110   23:30   0.00   43.2    41    6.3   171     7.9   854.6    0.00 
 110   23:40   0.00   41.5    49    5.1   169     6.1   854.6    0.00 
 110   23:50   0.00   42.6    42    5.3   148     6.6   854.6    0.00 
 111    0:00   0.00   44.1    37    6.4   151     9.4   854.6    0.00 
 111    0:10   0.00   45.4    35    5.5   176     8.9   854.6    0.00 
 111    0:20   0.00   42.9    43    5.8   195     8.1   854.6    0.00 
 111    0:30   0.00   43.6    38    6.4   185     8.8   854.5    0.00 
 111    0:40   0.00   43.6    39    5.4   159     7.5   854.4    0.00 

Return to Smith Valley graphs page.


Western Regional Climate Center,wrcc@dri.edu